Time;durP1;ratioP1;P1;durP2;ratioP2;P2;SDS_P1;SDS_P2;PMS_P1;PMS_P2;Temp;Humidity;BMP_temperature;BMP_pressure;BME280_temperature;BME280_humidity;BME280_pressure;Samples;Min_cycle;Max_cycle;Signal;HPM_P1;HPM_P2
2023/05/11 00:02:14;;;;;;;79.90;42.80;;;13.60;1.00;;;;;;4924893;29;20250;-69
2023/05/11 00:04:41;;;;;;;83.13;43.33;;;13.60;1.00;;;;;;4911888;29;20692;-66
2023/05/11 00:07:08;;;;;;;76.23;42.90;;;13.70;99.90;;;;;;4926886;29;20189;-67
2023/05/11 00:09:37;;;;;;;89.00;44.40;;;13.80;99.90;;;;;;4927245;29;20198;-67
2023/05/11 00:12:04;;;;;;;78.30;44.93;;;13.90;99.90;;;;;;4928043;29;20298;-70
2023/05/11 00:14:32;;;;;;;84.43;47.13;;;14.00;99.90;;;;;;4909110;29;20287;-67
2023/05/11 00:16:58;;;;;;;79.87;44.33;;;14.00;99.90;;;;;;4923334;29;20660;-67
2023/05/11 00:19:30;;;;;;;77.50;44.87;;;13.90;1.00;;;;;;4927134;29;20638;-66
2023/05/11 00:21:58;;;;;;;81.87;45.77;;;13.70;1.00;;;;;;4927515;29;20621;-67
2023/05/11 00:24:25;;;;;;;80.70;46.13;;;13.60;99.90;;;;;;4923750;29;20224;-67
2023/05/11 00:26:52;;;;;;;82.53;44.73;;;13.60;99.90;;;;;;4930269;29;20219;-65
2023/05/11 00:29:20;;;;;;;78.87;44.40;;;13.60;99.90;;;;;;4928397;29;20650;-65
2023/05/11 00:31:47;;;;;;;85.53;48.13;;;13.70;99.90;;;;;;4929968;29;20191;-66
2023/05/11 00:34:15;;;;;;;77.30;44.93;;;13.60;1.00;;;;;;4925001;29;20270;-65
2023/05/11 00:36:42;;;;;;;80.27;46.10;;;13.60;1.00;;;;;;4929302;29;20286;-65
2023/05/11 00:39:11;;;;;;;77.57;43.80;;;13.50;99.90;;;;;;4932694;28;20286;-66
2023/05/11 00:41:38;;;;;;;77.57;44.43;;;13.50;1.00;;;;;;4931716;29;20742;-66
2023/05/11 00:44:05;;;;;;;84.07;45.20;;;13.50;1.00;;;;;;4937913;28;20243;-66
2023/05/11 00:46:34;;;;;;;76.70;45.07;;;13.40;1.00;;;;;;4925675;29;20206;-67
2023/05/11 00:49:01;;;;;;;87.50;46.93;;;13.40;1.00;;;;;;4951514;28;20268;-66
2023/05/11 00:51:30;;;;;;;84.03;46.20;;;13.40;1.00;;;;;;4938511;28;20320;-66
2023/05/11 00:53:58;;;;;;;84.87;45.77;;;13.40;1.00;;;;;;4915112;29;20619;-67
2023/05/11 00:56:25;;;;;;;88.07;47.73;;;13.30;99.90;;;;;;4933029;29;20200;-66
2023/05/11 00:58:52;;;;;;;89.17;47.73;;;13.30;99.90;;;;;;4931903;29;20196;-65
2023/05/11 01:01:19;;;;;;;86.40;47.13;;;13.20;99.90;;;;;;4935352;29;20230;-65
2023/05/11 01:03:47;;;;;;;93.20;49.03;;;13.20;99.90;;;;;;4991186;22;20237;-61
2023/05/11 01:06:26;;;;;;;94.47;49.10;;;13.20;99.90;;;;;;4986770;28;20730;-63
2023/05/11 01:09:05;;;;;;;95.97;50.20;;;13.20;99.90;;;;;;4966874;28;23023;-63
2023/05/11 01:11:46;;;;;;;96.77;49.73;;;13.30;99.90;;;;;;4962117;28;20199;-64
2023/05/11 01:14:19;;;;;;;88.10;46.50;;;13.30;99.90;;;;;;4968654;28;20292;-64
2023/05/11 01:16:50;;;;;;;93.07;49.07;;;13.30;99.90;;;;;;4953733;28;20205;-63
2023/05/11 01:19:55;;;;;;;95.60;49.47;;;13.40;99.90;;;;;;4969076;28;20249;-64
2023/05/11 01:22:25;;;;;;;95.37;49.93;;;13.40;99.90;;;;;;4967976;28;20201;-64
2023/05/11 01:25:12;;;;;;;87.93;48.47;;;13.40;99.90;;;;;;4984291;28;20200;-64
2023/05/11 01:28:24;;;;;;;87.13;46.57;;;13.40;99.90;;;;;;4981633;28;20228;-64
2023/05/11 01:31:00;;;;;;;89.50;47.90;;;13.40;99.90;;;;;;4969270;28;20186;-64
2023/05/11 01:33:32;;;;;;;82.30;43.03;;;13.30;1.00;;;;;;4956741;28;20339;-64
2023/05/11 01:36:06;;;;;;;87.80;44.37;;;13.40;1.00;;;;;;4972021;28;20666;-66
2023/05/11 01:38:37;;;;;;;74.87;38.10;;;13.40;1.00;;;;;;4971974;28;20260;-66
2023/05/11 01:41:12;;;;;;;89.30;43.73;;;13.40;1.00;;;;;;4989681;28;20202;-66
2023/05/11 01:43:42;;;;;;;92.23;46.87;;;13.40;1.00;;;;;;4970375;28;20343;-66
2023/05/11 01:46:12;;;;;;;86.73;45.63;;;13.40;99.90;;;;;;4988515;28;20889;-65
2023/05/11 01:48:45;;;;;;;87.50;46.23;;;13.30;99.90;;;;;;4957934;28;20292;-64
2023/05/11 01:51:14;;;;;;;80.73;42.10;;;13.30;99.90;;;;;;4985909;28;20280;-65
2023/05/11 01:53:43;;;;;;;82.37;43.97;;;13.40;99.90;;;;;;4964018;28;20213;-64
2023/05/11 01:56:11;;;;;;;48.60;29.23;;;13.50;1.00;;;;;;4973507;28;20205;-65
2023/05/11 01:58:40;;;;;;;78.57;43.77;;;13.70;99.90;;;;;;4970520;28;20217;-65
2023/05/11 02:01:09;;;;;;;51.03;33.30;;;13.70;1.00;;;;;;4972902;28;20193;-65
2023/05/11 02:03:37;;;;;;;64.43;38.80;;;13.90;92.80;;;;;;4964259;28;20237;-65
2023/05/11 02:06:05;;;;;;;66.97;41.87;;;13.90;1.00;;;;;;4966348;28;20206;-65
2023/05/11 02:08:35;;;;;;;63.37;39.40;;;13.90;1.00;;;;;;4974735;28;20576;-65
2023/05/11 02:11:03;;;;;;;56.97;37.08;;;14.00;1.00;;;;;;4968658;28;20434;-65
2023/05/11 02:13:33;;;;;;;56.13;34.83;;;13.90;1.00;;;;;;4970095;28;20194;-65
2023/05/11 02:16:01;;;;;;;59.38;35.83;;;13.80;99.90;;;;;;4968567;28;20728;-64
2023/05/11 02:18:29;;;;;;;54.50;40.65;;;13.90;99.90;;;;;;4961649;28;20232;-65
2023/05/11 02:20:59;;;;;;;58.60;39.75;;;13.90;99.90;;;;;;4975086;28;20662;-65
2023/05/11 02:23:28;;;;;;;56.15;38.67;;;13.90;99.90;;;;;;4982335;28;20313;-67
2023/05/11 02:25:56;;;;;;;54.10;35.60;;;14.00;99.90;;;;;;4968193;28;20191;-66
2023/05/11 02:28:23;;;;;;;52.97;32.67;;;13.90;1.00;;;;;;4972715;28;20670;-64
2023/05/11 02:30:54;;;;;;;52.07;37.00;;;13.70;1.00;;;;;;4967696;28;20277;-66
2023/05/11 02:33:35;;;;;;;57.43;35.73;;;13.60;1.00;;;;;;4966777;28;20881;-61
2023/05/11 02:36:04;;;;;;;59.50;37.63;;;13.60;1.00;;;;;;4964632;28;20194;-61
2023/05/11 02:38:34;;;;;;;64.27;40.13;;;13.50;1.00;;;;;;4970491;28;20700;-60
2023/05/11 02:41:08;;;;;;;59.77;36.93;;;13.50;1.00;;;;;;4976830;28;20218;-60
2023/05/11 02:43:42;;;;;;;63.93;37.57;;;13.60;1.00;;;;;;4981734;28;20277;-61
2023/05/11 02:46:15;;;;;;;60.30;35.93;;;13.50;1.00;;;;;;4982627;28;20248;-61
2023/05/11 02:48:46;;;;;;;60.30;36.07;;;13.40;1.00;;;;;;4969561;28;20202;-60
2023/05/11 02:51:17;;;;;;;63.90;36.33;;;13.30;1.00;;;;;;4957852;28;20198;-60
2023/05/11 02:53:50;;;;;;;59.37;35.77;;;13.40;1.00;;;;;;4969215;28;20198;-61
2023/05/11 02:56:17;;;;;;;68.27;38.27;;;13.40;1.00;;;;;;4965846;28;20311;-61
2023/05/11 02:58:44;;;;;;;66.27;37.20;;;13.30;1.00;;;;;;4967641;28;20732;-60
2023/05/11 03:01:19;;;;;;;61.83;37.17;;;13.30;1.00;;;;;;4966583;28;20656;-61
2023/05/11 03:03:46;;;;;;;67.40;39.10;;;13.30;1.00;;;;;;4947074;28;20344;-60
2023/05/11 03:06:14;;;;;;;71.60;39.47;;;13.40;1.00;;;;;;4966016;28;20422;-61
2023/05/11 03:08:41;;;;;;;76.10;40.13;;;13.40;1.00;;;;;;4968745;28;20241;-60
2023/05/11 03:11:11;;;;;;;68.37;41.67;;;13.40;1.00;;;;;;4967663;28;20318;-62
2023/05/11 03:13:38;;;;;;;88.50;43.07;;;13.50;1.00;;;;;;4964268;28;20201;-60
2023/05/11 03:16:07;;;;;;;74.47;42.93;;;13.50;1.00;;;;;;4965413;28;20248;-60
2023/05/11 03:18:35;;;;;;;74.53;43.00;;;13.60;1.00;;;;;;4966806;28;20543;-61
2023/05/11 03:21:04;;;;;;;66.23;38.40;;;13.80;1.00;;;;;;4967082;28;20689;-66
2023/05/11 03:23:33;;;;;;;63.30;38.13;;;13.80;1.00;;;;;;4966144;28;20745;-60
2023/05/11 03:26:02;;;;;;;66.23;38.57;;;13.90;1.00;;;;;;4962231;28;20749;-60
2023/05/11 03:28:30;;;;;;;62.77;39.20;;;13.80;99.90;;;;;;4967364;28;20191;-60
2023/05/11 03:31:01;;;;;;;65.83;41.97;;;13.70;99.90;;;;;;4965461;28;20672;-64
2023/05/11 03:33:31;;;;;;;68.43;40.77;;;13.80;1.00;;;;;;4969462;28;20254;-60
2023/05/11 03:36:01;;;;;;;60.47;40.70;;;13.90;99.90;;;;;;4967322;28;20202;-61
2023/05/11 03:38:30;;;;;;;55.60;37.07;;;14.10;1.00;;;;;;4961523;28;20202;-61
2023/05/11 03:40:59;;;;;;;60.13;38.40;;;14.10;99.90;;;;;;4963363;28;20202;-61
2023/05/11 03:43:30;;;;;;;57.13;37.53;;;14.10;99.90;;;;;;4965929;28;20615;-61
2023/05/11 03:45:59;;;;;;;55.20;38.20;;;14.20;99.90;;;;;;4972242;28;20226;-61
2023/05/11 03:48:27;;;;;;;65.27;38.67;;;14.00;99.90;;;;;;4987252;28;20657;-61
2023/05/11 03:50:55;;;;;;;63.90;37.23;;;14.00;99.90;;;;;;4967972;28;20249;-61
2023/05/11 03:53:22;;;;;;;60.10;38.03;;;13.90;99.90;;;;;;4959090;28;20262;-61
2023/05/11 03:55:51;;;;;;;61.67;36.60;;;13.90;99.90;;;;;;4961123;28;20245;-61
2023/05/11 03:58:18;;;;;;;61.55;38.05;;;13.80;99.90;;;;;;4970449;28;20305;-61
2023/05/11 04:00:46;;;;;;;63.97;37.00;;;13.80;99.90;;;;;;4960435;28;20213;-60
2023/05/11 04:03:13;;;;;;;62.27;36.77;;;13.80;99.90;;;;;;4976174;28;20248;-61
2023/05/11 04:05:41;;;;;;;59.70;37.60;;;13.60;99.90;;;;;;4985788;28;20740;-61
2023/05/11 04:08:11;;;;;;;72.60;39.77;;;13.60;99.90;;;;;;4968801;28;20384;-67
2023/05/11 04:10:38;;;;;;;71.47;39.57;;;13.40;99.90;;;;;;4975824;28;20235;-61
2023/05/11 04:13:05;;;;;;;76.00;40.30;;;13.50;1.00;;;;;;4988532;28;20198;-61
2023/05/11 04:15:32;;;;;;;79.83;42.07;;;13.50;99.90;;;;;;4964020;28;20513;-61
2023/05/11 04:17:59;;;;;;;72.27;41.03;;;13.40;99.90;;;;;;4955561;28;20737;-61
2023/05/11 04:20:26;;;;;;;74.40;41.57;;;13.50;99.90;;;;;;4988423;28;20185;-61
2023/05/11 04:22:53;;;;;;;69.60;41.33;;;13.50;99.90;;;;;;4964182;28;20198;-61
2023/05/11 04:25:20;;;;;;;73.73;41.67;;;13.40;99.90;;;;;;4987839;28;20881;-61
2023/05/11 04:27:47;;;;;;;69.60;39.57;;;13.60;1.00;;;;;;4992111;28;20252;-61
2023/05/11 04:30:14;;;;;;;73.50;40.80;;;13.60;99.90;;;;;;4991694;28;20271;-61
2023/05/11 04:32:41;;;;;;;76.30;41.87;;;13.60;99.90;;;;;;4968262;28;20490;-60
2023/05/11 04:35:09;;;;;;;71.07;40.37;;;13.70;99.90;;;;;;4965833;28;20277;-61
2023/05/11 04:37:37;;;;;;;71.40;37.77;;;13.70;99.90;;;;;;4948816;28;20272;-61
2023/05/11 04:40:07;;;;;;;69.03;37.67;;;13.70;99.90;;;;;;4950395;28;20296;-60
2023/05/11 04:42:42;;;;;;;58.57;36.47;;;13.80;1.00;;;;;;4972032;28;20251;-61
2023/05/11 04:45:14;;;;;;;60.33;36.20;;;13.80;99.90;;;;;;4969333;28;20213;-61
2023/05/11 04:47:41;;;;;;;60.43;35.37;;;14.00;99.90;;;;;;4989627;28;20195;-61
2023/05/11 04:50:09;;;;;;;58.67;35.67;;;14.00;99.90;;;;;;4983012;28;20582;-62
2023/05/11 04:52:36;;;;;;;60.58;37.05;;;14.30;99.90;;;;;;4975076;28;20308;-61
2023/05/11 04:55:04;;;;;;;40.83;27.35;;;14.60;78.70;;;;;;4975600;28;20288;-61
2023/05/11 04:57:31;;;;;;;46.13;29.52;;;14.60;1.00;;;;;;4976535;28;20280;-61
2023/05/11 05:00:00;;;;;;;55.10;35.22;;;14.60;1.00;;;;;;4954721;28;20198;-61
2023/05/11 05:02:27;;;;;;;42.35;29.23;;;14.30;1.00;;;;;;4975705;28;20296;-60
2023/05/11 05:04:54;;;;;;;60.83;34.63;;;14.10;1.00;;;;;;4991042;28;20217;-61
2023/05/11 05:07:22;;;;;;;52.60;33.03;;;14.10;1.00;;;;;;4998912;28;20676;-61
2023/05/11 05:09:49;;;;;;;57.55;36.58;;;14.00;1.00;;;;;;4968937;28;20243;-61
2023/05/11 05:12:16;;;;;;;59.55;37.13;;;14.10;1.00;;;;;;4980657;28;20669;-61
2023/05/11 05:14:43;;;;;;;47.05;29.25;;;13.80;1.00;;;;;;4999268;28;20699;-60
2023/05/11 05:17:10;;;;;;;51.50;31.60;;;13.90;1.00;;;;;;5001362;28;20205;-61
2023/05/11 05:19:38;;;;;;;60.92;36.45;;;14.10;1.00;;;;;;4995395;28;20296;-61
2023/05/11 05:22:05;;;;;;;42.43;27.30;;;14.30;1.00;;;;;;4999928;28;20657;-60
2023/05/11 05:24:33;;;;;;;53.88;33.42;;;14.50;1.00;;;;;;4994606;28;20221;-61
2023/05/11 05:27:02;;;;;;;61.85;34.67;;;14.50;1.00;;;;;;4994656;28;20193;-61
2023/05/11 05:29:29;;;;;;;72.00;41.60;;;14.60;1.00;;;;;;4995588;28;20721;-62
2023/05/11 05:31:58;;;;;;;69.68;40.35;;;14.50;99.90;;;;;;4991872;28;20235;-61
2023/05/11 05:34:26;;;;;;;69.32;39.88;;;14.70;99.90;;;;;;4985834;28;20660;-60
2023/05/11 05:36:53;;;;;;;75.55;43.88;;;14.70;99.90;;;;;;5002030;28;20225;-61
2023/05/11 05:39:20;;;;;;;68.28;39.58;;;14.50;99.90;;;;;;4981728;28;21944;-61
2023/05/11 05:41:47;;;;;;;75.68;45.08;;;14.50;99.90;;;;;;4964265;28;20229;-61
2023/05/11 05:44:14;;;;;;;69.32;41.13;;;14.50;1.00;;;;;;4973368;28;20572;-61
2023/05/11 05:46:41;;;;;;;75.43;43.15;;;14.40;99.90;;;;;;4983126;28;20202;-61
2023/05/11 05:49:08;;;;;;;69.22;40.70;;;14.40;99.90;;;;;;4961359;28;20202;-61
2023/05/11 05:51:36;;;;;;;81.25;45.72;;;14.50;1.00;;;;;;4981061;28;20205;-60
2023/05/11 05:54:03;;;;;;;77.50;45.40;;;14.50;99.90;;;;;;4991884;28;20681;-61
2023/05/11 05:56:33;;;;;;;76.13;44.47;;;14.40;99.90;;;;;;4972646;28;20568;-61
2023/05/11 05:59:01;;;;;;;83.40;45.17;;;14.50;99.90;;;;;;4965789;28;20205;-61
2023/05/11 06:01:28;;;;;;;57.20;35.17;;;14.70;99.90;;;;;;4988738;28;20225;-61
2023/05/11 06:03:55;;;;;;;80.00;48.42;;;15.00;99.90;;;;;;4998051;28;20294;-61
2023/05/11 06:06:24;;;;;;;58.97;38.70;;;15.50;99.90;;;;;;5000867;28;20194;-64
2023/05/11 06:08:52;;;;;;;55.40;34.55;;;15.90;99.90;;;;;;4979483;28;20198;-61
2023/05/11 06:11:20;;;;;;;74.93;45.53;;;15.90;99.90;;;;;;4963067;28;20231;-61
2023/05/11 06:13:48;;;;;;;64.82;39.50;;;16.00;99.90;;;;;;4960978;28;20205;-61
2023/05/11 06:16:15;;;;;;;69.57;44.33;;;16.10;99.90;;;;;;4985967;28;20279;-61
2023/05/11 06:18:42;;;;;;;45.45;28.98;;;16.10;99.90;;;;;;4999671;28;20660;-61
2023/05/11 06:21:09;;;;;;;68.72;43.95;;;16.30;62.80;;;;;;4992799;28;20681;-61
2023/05/11 06:23:36;;;;;;;70.32;43.58;;;16.50;52.60;;;;;;4997383;28;20527;-61
2023/05/11 06:26:03;;;;;;;55.78;38.63;;;16.60;1.00;;;;;;4965499;28;20235;-61
2023/05/11 06:28:32;;;;;;;66.55;43.88;;;16.60;1.00;;;;;;4993613;28;20634;-61
2023/05/11 06:31:02;;;;;;;70.60;46.70;;;16.80;1.00;;;;;;4980766;28;20211;-61
2023/05/11 06:33:33;;;;;;;50.30;32.50;;;16.80;1.00;;;;;;5000342;28;20202;-66
2023/05/11 06:36:07;;;;;;;50.67;34.88;;;16.90;1.00;;;;;;4993627;28;20288;-61
2023/05/11 06:38:35;;;;;;;44.15;29.40;;;17.00;1.00;;;;;;4992672;28;20200;-61
2023/05/11 06:41:02;;;;;;;66.75;45.80;;;17.10;1.00;;;;;;4981850;28;20573;-61
2023/05/11 06:43:29;;;;;;;68.90;45.80;;;16.80;1.00;;;;;;4999855;28;20216;-61
2023/05/11 06:46:00;;;;;;;75.22;45.10;;;15.90;1.00;;;;;;4991337;28;20220;-61
2023/05/11 06:48:28;;;;;;;77.53;48.78;;;15.70;1.00;;;;;;4987739;28;20273;-61
2023/05/11 06:50:57;;;;;;;74.38;47.67;;;15.50;1.00;;;;;;4947361;28;20204;-60
2023/05/11 06:53:24;;;;;;;88.13;50.75;;;15.40;1.00;;;;;;4974586;28;20194;-62
2023/05/11 06:55:54;;;;;;;64.72;42.90;;;15.50;1.00;;;;;;4982001;28;20201;-61
2023/05/11 06:58:21;;;;;;;78.97;47.63;;;15.70;1.00;;;;;;4998808;28;20225;-61
2023/05/11 07:00:48;;;;;;;85.68;49.83;;;15.70;1.00;;;;;;4973994;28;20197;-61
2023/05/11 07:03:15;;;;;;;80.80;48.67;;;15.20;1.00;;;;;;4990364;28;20248;-61
2023/05/11 07:05:42;;;;;;;74.65;46.35;;;15.50;1.00;;;;;;5002297;28;20205;-61
2023/05/11 07:08:11;;;;;;;74.47;47.55;;;15.40;1.00;;;;;;5008442;28;20192;-60
2023/05/11 07:10:38;;;;;;;77.68;46.63;;;15.50;1.00;;;;;;4986798;28;20221;-61
2023/05/11 07:13:04;;;;;;;82.88;50.53;;;15.30;1.00;;;;;;4991450;28;20296;-61
2023/05/11 07:15:31;;;;;;;69.60;43.45;;;15.40;1.00;;;;;;4973605;28;20289;-61
2023/05/11 07:18:00;;;;;;;77.30;48.58;;;15.40;1.00;;;;;;5006033;28;20189;-61
2023/05/11 07:20:27;;;;;;;69.65;45.25;;;15.50;1.00;;;;;;5002677;28;20208;-61
2023/05/11 07:22:58;;;;;;;70.57;46.17;;;15.80;1.00;;;;;;5004940;28;20688;-61
2023/05/11 07:25:25;;;;;;;68.65;43.40;;;15.70;1.00;;;;;;5008462;28;20308;-61
2023/05/11 07:27:52;;;;;;;75.43;48.00;;;15.60;1.00;;;;;;4994363;28;20292;-60
2023/05/11 07:30:19;;;;;;;75.13;47.15;;;15.20;1.00;;;;;;4997112;28;20252;-61
2023/05/11 07:32:47;;;;;;;69.78;44.13;;;15.10;1.00;;;;;;4971531;28;20194;-61
2023/05/11 07:35:14;;;;;;;71.85;46.97;;;15.50;1.00;;;;;;4982034;28;20223;-61
2023/05/11 07:37:41;;;;;;;63.10;40.95;;;15.50;1.00;;;;;;5002819;28;20197;-61
2023/05/11 07:40:08;;;;;;;66.57;44.35;;;15.50;1.00;;;;;;4992846;28;20215;-61
2023/05/11 07:42:35;;;;;;;61.03;41.45;;;15.70;1.00;;;;;;4995084;28;20243;-62
2023/05/11 07:45:02;;;;;;;59.45;40.83;;;15.90;1.00;;;;;;5002755;28;20217;-61
2023/05/11 07:47:30;;;;;;;59.97;41.78;;;16.10;1.00;;;;;;4991788;28;20185;-61
2023/05/11 07:49:57;;;;;;;61.05;41.30;;;16.30;1.00;;;;;;4994322;28;20475;-61
2023/05/11 07:52:23;;;;;;;52.00;38.42;;;16.60;1.00;;;;;;4990655;28;20197;-61
2023/05/11 07:54:50;;;;;;;50.72;38.30;;;17.80;1.00;;;;;;4996365;28;20186;-61
2023/05/11 07:57:18;;;;;;;46.90;37.10;;;18.00;1.00;;;;;;4962562;28;20205;-61
2023/05/11 07:59:45;;;;;;;55.25;38.33;;;18.40;1.00;;;;;;4972282;28;20256;-61
2023/05/11 08:02:13;;;;;;;57.63;39.65;;;18.70;1.00;;;;;;4989641;28;20253;-61
2023/05/11 08:04:40;;;;;;;58.90;42.80;;;18.70;1.00;;;;;;4989546;28;20221;-61
2023/05/11 08:07:07;;;;;;;54.28;40.63;;;18.00;99.90;;;;;;4990206;28;20281;-61
2023/05/11 08:09:35;;;;;;;52.05;38.95;;;17.90;1.00;;;;;;4992184;28;20277;-61
2023/05/11 08:12:02;;;;;;;48.53;37.08;;;19.10;99.90;;;;;;4991770;28;20758;-73
2023/05/11 08:14:29;;;;;;;53.53;40.38;;;18.70;99.90;;;;;;4987884;28;20209;-64
2023/05/11 08:16:56;;;;;;;49.40;37.38;;;18.00;99.90;;;;;;4968426;28;20724;-62
2023/05/11 08:19:23;;;;;;;44.10;36.25;;;18.30;99.90;;;;;;4969046;28;20213;-63
2023/05/11 08:21:51;;;;;;;49.83;38.58;;;18.60;99.90;;;;;;4965217;28;20194;-63
2023/05/11 08:24:18;;;;;;;44.63;32.83;;;18.10;99.90;;;;;;4969716;28;20268;-61
2023/05/11 08:26:46;;;;;;;38.78;31.05;;;18.90;99.90;;;;;;4953595;28;20205;-61
2023/05/11 08:29:13;;;;;;;38.70;31.13;;;19.60;99.90;;;;;;4971026;28;20194;-61
2023/05/11 08:31:39;;;;;;;40.10;33.67;;;20.10;99.90;;;;;;4972389;28;20201;-61
2023/05/11 08:34:07;;;;;;;39.55;31.45;;;19.90;99.90;;;;;;4988488;28;20198;-61
2023/05/11 08:36:45;;;;;;;37.47;31.98;;;20.00;99.90;;;;;;4984252;28;20216;-61
2023/05/11 08:39:12;;;;;;;39.78;33.47;;;19.90;99.90;;;;;;4990867;28;20212;-61
2023/05/11 08:41:39;;;;;;;35.30;30.13;;;18.90;99.90;;;;;;4985445;28;20204;-61
2023/05/11 08:44:08;;;;;;;39.92;31.95;;;19.60;99.90;;;;;;4988204;28;20204;-61
2023/05/11 08:46:40;;;;;;;34.70;29.77;;;19.10;99.90;;;;;;4984500;28;20209;-61
2023/05/11 08:49:08;;;;;;;33.80;28.65;;;20.10;99.90;;;;;;4978615;28;20201;-62
2023/05/11 08:51:35;;;;;;;36.63;31.25;;;21.30;99.90;;;;;;4968894;28;20281;-62
2023/05/11 08:54:02;;;;;;;32.97;28.38;;;22.10;99.90;;;;;;4983773;28;20220;-61
2023/05/11 08:56:30;;;;;;;32.50;29.02;;;22.60;99.90;;;;;;4968815;28;20252;-61
2023/05/11 08:58:57;;;;;;;32.53;28.98;;;22.00;99.90;;;;;;4979967;28;20213;-61
2023/05/11 09:01:28;;;;;;;32.28;28.77;;;21.50;99.90;;;;;;4981429;28;20202;-61
2023/05/11 09:03:57;;;;;;;33.85;30.20;;;20.50;99.90;;;;;;4986214;28;20261;-61
2023/05/11 09:06:26;;;;;;;32.22;28.40;;;19.80;99.90;;;;;;4971300;28;20211;-62
2023/05/11 09:08:53;;;;;;;33.33;27.90;;;19.80;99.90;;;;;;4982670;28;20709;-61
2023/05/11 09:11:21;;;;;;;33.58;28.95;;;19.50;99.90;;;;;;4982610;28;20713;-61
2023/05/11 09:13:49;;;;;;;33.38;28.67;;;19.10;99.90;;;;;;4958162;28;20209;-61
2023/05/11 09:16:16;;;;;;;30.85;27.55;;;18.90;99.90;;;;;;4966335;28;20658;-61
2023/05/11 09:19:02;;;;;;;29.40;26.23;;;18.80;99.90;;;;;;4982859;28;20230;-61
2023/05/11 09:21:30;;;;;;;34.40;27.63;;;18.70;99.90;;;;;;4960817;28;20202;-61
2023/05/11 09:23:58;;;;;;;30.00;25.10;;;18.70;99.90;;;;;;4982175;28;20229;-61
2023/05/11 09:26:28;;;;;;;34.75;25.65;;;18.60;99.90;;;;;;4978017;28;20209;-61
2023/05/11 09:28:59;;;;;;;28.58;25.50;;;18.60;99.90;;;;;;4972920;28;20213;-61
2023/05/11 09:31:47;;;;;;;27.30;24.38;;;18.70;99.90;;;;;;4974887;28;20214;-61
2023/05/11 09:34:16;;;;;;;28.83;24.70;;;18.80;99.90;;;;;;4986511;28;20277;-61
2023/05/11 09:36:45;;;;;;;26.48;23.55;;;18.80;99.90;;;;;;4987492;28;20276;-61
2023/05/11 09:39:13;;;;;;;27.25;24.30;;;18.80;99.90;;;;;;4978210;28;20709;-61
2023/05/11 09:41:42;;;;;;;25.00;22.35;;;18.70;99.90;;;;;;4985650;28;20256;-61
2023/05/11 09:44:14;;;;;;;25.58;22.63;;;18.80;99.90;;;;;;4981312;28;20710;-61
2023/05/11 09:46:43;;;;;;;25.73;23.00;;;18.80;99.90;;;;;;4991742;28;20828;-61
2023/05/11 09:49:11;;;;;;;24.00;21.40;;;18.70;99.90;;;;;;4976716;28;20224;-62
2023/05/11 09:51:39;;;;;;;26.52;21.92;;;18.70;99.90;;;;;;4987070;28;20285;-61
2023/05/11 09:54:18;;;;;;;25.50;22.35;;;18.30;99.90;;;;;;4983454;28;20640;-62
2023/05/11 09:56:46;;;;;;;26.50;22.30;;;18.20;99.90;;;;;;4991244;28;20216;-61
2023/05/11 09:59:35;;;;;;;23.83;20.75;;;18.30;99.90;;;;;;4994904;28;20709;-61
2023/05/11 10:02:22;;;;;;;22.65;20.25;;;18.40;99.90;;;;;;4991410;28;20768;-62
2023/05/11 10:04:52;;;;;;;20.98;18.35;;;18.60;99.90;;;;;;4987392;28;20203;-62
2023/05/11 10:07:38;;;;;;;19.20;17.15;;;18.70;99.90;;;;;;4983215;28;20962;-61
2023/05/11 10:10:07;;;;;;;21.73;19.38;;;18.80;99.90;;;;;;4973132;28;20690;-61
2023/05/11 10:12:37;;;;;;;19.88;17.80;;;18.80;99.90;;;;;;4984081;28;20194;-61
2023/05/11 10:15:06;;;;;;;20.00;17.42;;;19.10;99.90;;;;;;4949730;28;20862;-62
2023/05/11 10:17:34;;;;;;;18.20;16.38;;;19.30;99.90;;;;;;4986705;28;20276;-65
2023/05/11 10:20:03;;;;;;;19.45;17.38;;;19.50;99.90;;;;;;4988984;28;20288;-61
2023/05/11 10:22:30;;;;;;;20.20;17.95;;;19.40;99.90;;;;;;4987008;28;20201;-62
2023/05/11 10:24:58;;;;;;;19.92;17.83;;;19.50;99.90;;;;;;4988661;28;20296;-61
2023/05/11 10:27:27;;;;;;;18.55;16.60;;;19.40;99.90;;;;;;4992327;28;20337;-62
2023/05/11 10:29:57;;;;;;;18.48;16.65;;;19.70;99.90;;;;;;4990362;28;20205;-65
2023/05/11 10:32:27;;;;;;;18.75;16.20;;;19.60;99.90;;;;;;4989477;28;20216;-62
2023/05/11 10:34:55;;;;;;;18.25;16.35;;;19.60;99.90;;;;;;4990372;28;20190;-62
2023/05/11 10:37:23;;;;;;;18.90;16.83;;;19.70;99.90;;;;;;4991725;28;20823;-62
2023/05/11 10:39:51;;;;;;;21.40;16.88;;;19.90;99.90;;;;;;4992352;28;20232;-62
2023/05/11 10:42:24;;;;;;;19.52;16.67;;;19.90;99.90;;;;;;4990611;28;20662;-62
2023/05/11 10:44:53;;;;;;;18.75;16.13;;;19.70;99.90;;;;;;4989558;28;20685;-62
2023/05/11 10:47:58;;;;;;;17.42;15.60;;;20.00;99.90;;;;;;4990243;28;20282;-62
2023/05/11 10:51:00;;;;;;;18.23;16.23;;;20.40;99.90;;;;;;4969565;28;20308;-62
2023/05/11 10:53:51;;;;;;;16.75;14.40;;;20.50;99.90;;;;;;4958125;28;20198;-61
2023/05/11 10:56:34;;;;;;;17.33;14.32;;;21.00;99.90;;;;;;4966337;28;20205;-63
2023/05/11 10:59:04;;;;;;;16.33;14.57;;;21.20;99.90;;;;;;4992901;28;20217;-63
2023/05/11 11:01:40;;;;;;;19.98;15.52;;;21.20;99.90;;;;;;4988264;28;20247;-63
2023/05/11 11:04:12;;;;;;;16.67;14.98;;;21.20;99.90;;;;;;4976515;28;20320;-67
2023/05/11 11:06:43;;;;;;;16.08;14.38;;;21.70;99.90;;;;;;4987467;28;20673;-62
2023/05/11 11:09:13;;;;;;;15.80;14.20;;;21.90;99.90;;;;;;4990889;28;20216;-61
2023/05/11 11:11:45;;;;;;;13.25;11.95;;;22.10;99.90;;;;;;4981003;28;20202;-62
2023/05/11 11:14:14;;;;;;;15.02;12.73;;;22.00;99.90;;;;;;4965910;28;20206;-62
2023/05/11 11:17:13;;;;;;;13.50;12.10;;;22.10;99.90;;;;;;4987323;28;20538;-61
2023/05/11 11:19:41;;;;;;;15.02;13.43;;;21.70;99.90;;;;;;4982328;28;20205;-64
2023/05/11 11:22:33;;;;;;;14.45;12.98;;;21.70;99.90;;;;;;4971566;28;20309;-61
2023/05/11 11:25:03;;;;;;;14.50;13.00;;;21.60;99.90;;;;;;4974915;28;20615;-62
2023/05/11 11:27:40;;;;;;;15.15;13.55;;;21.40;99.90;;;;;;4985393;28;20193;-61
2023/05/11 11:30:18;;;;;;;14.63;12.52;;;21.20;99.90;;;;;;4986989;28;20543;-62
2023/05/11 11:32:51;;;;;;;14.70;13.18;;;20.90;99.90;;;;;;4989787;28;20220;-61
2023/05/11 11:35:43;;;;;;;14.30;12.80;;;20.50;99.90;;;;;;4981662;28;20221;-62
2023/05/11 11:38:11;;;;;;;16.27;12.77;;;20.30;99.90;;;;;;4986669;28;20193;-62
2023/05/11 11:40:40;;;;;;;14.18;11.50;;;20.00;99.90;;;;;;4967645;28;20618;-61
2023/05/11 11:43:20;;;;;;;13.07;11.68;;;19.80;99.90;;;;;;4985217;28;20201;-62
2023/05/11 11:46:00;;;;;;;13.98;11.90;;;19.50;99.90;;;;;;4987636;28;20209;-61
2023/05/11 11:48:32;;;;;;;14.38;12.73;;;19.10;99.90;;;;;;4989515;28;20199;-62
2023/05/11 11:51:10;;;;;;;13.45;11.38;;;18.90;99.90;;;;;;4988431;28;20653;-61
2023/05/11 11:53:36;;;;;;;14.77;13.18;;;18.70;99.90;;;;;;4967574;28;20209;-61
2023/05/11 11:56:06;;;;;;;18.70;13.85;;;18.40;99.90;;;;;;4967297;28;20256;-61
2023/05/11 11:58:59;;;;;;;14.77;12.88;;;17.70;99.90;;;;;;4990078;28;20600;-60
2023/05/11 12:01:33;;;;;;;16.20;12.68;;;17.80;99.90;;;;;;4990446;28;20220;-62
2023/05/11 12:04:03;;;;;;;17.60;13.30;;;17.90;99.90;;;;;;4965736;28;20308;-61
2023/05/11 12:06:38;;;;;;;16.67;13.50;;;18.00;99.90;;;;;;4964522;28;20377;-61
2023/05/11 12:09:08;;;;;;;17.83;12.35;;;17.90;99.90;;;;;;4968154;28;20209;-61
2023/05/11 12:11:37;;;;;;;17.45;13.75;;;17.70;99.90;;;;;;4965808;28;20202;-61
2023/05/11 12:14:04;;;;;;;17.60;13.25;;;17.70;99.90;;;;;;4969267;28;20245;-60
2023/05/11 12:16:31;;;;;;;14.98;12.10;;;17.70;99.90;;;;;;4969140;28;20625;-61
2023/05/11 12:18:59;;;;;;;17.48;12.48;;;17.90;99.90;;;;;;4965660;28;20217;-61
2023/05/11 12:21:32;;;;;;;12.68;11.15;;;17.80;99.90;;;;;;4961678;28;20208;-61
2023/05/11 12:24:04;;;;;;;14.85;11.88;;;17.70;99.90;;;;;;4981583;28;20919;-63
2023/05/11 12:26:33;;;;;;;13.05;10.07;;;17.70;99.90;;;;;;4967314;28;20265;-60
2023/05/11 12:29:11;;;;;;;11.90;10.70;;;17.50;99.90;;;;;;4965849;28;20269;-61
2023/05/11 12:31:41;;;;;;;11.52;9.90;;;17.20;99.90;;;;;;4968032;28;20278;-61
2023/05/11 12:34:16;;;;;;;12.10;10.82;;;17.30;99.90;;;;;;4965034;28;20202;-67
2023/05/11 12:36:45;;;;;;;15.43;11.07;;;17.10;99.90;;;;;;4967097;28;20199;-61
2023/05/11 12:39:26;;;;;;;12.55;11.05;;;16.80;99.90;;;;;;4968664;28;20284;-61
2023/05/11 12:41:54;;;;;;;13.65;11.65;;;16.60;99.90;;;;;;4968106;28;20216;-61
2023/05/11 12:44:24;;;;;;;13.13;11.25;;;16.50;99.90;;;;;;4968805;28;20195;-64
2023/05/11 12:46:52;;;;;;;12.52;11.23;;;16.50;99.90;;;;;;4967529;28;20237;-65